< < Back
Terminal Aerodrome Forecast


Current Version              Previous Versions:   1  2  3  4  5  6  7  8  9  

Terminal Aerodrome Forecast

067
FTUS44 KBMX 191700
TAFTCL
TAF
KTCL 191725Z 1918/2018 01010G18KT P6SM FEW050
     FM200000 00000KT P6SM SKC=

Latest METAR

810
SAUS70 KWBC 201600 RRC
MTRTCL
METAR KTCL 201553Z VRB05KT 10SM CLR 20/08 A3025 RMK AO2 SLP242
T02000078


USA.gov is the U.S. government's official web portal to all federal, state and local government web resources and services.